Time;durP1;ratioP1;P1;durP2;ratioP2;P2;SDS_P1;SDS_P2;PMS_P1;PMS_P2;Temp;Humidity;BMP_temperature;BMP_pressure;BME280_temperature;BME280_humidity;BME280_pressure;Samples;Min_cycle;Max_cycle;Signal;HPM_P1;HPM_P2
2023/02/02 00:02:17;;;;;;;;;;;;;;;6.21;59.47;101162.75;5070268;28;19919;-78
2023/02/02 00:05:09;;;;;;;;;;;;;;;6.45;58.87;101171.81;5076840;28;19916;-79
2023/02/02 00:08:01;;;;;;;;;;;;;;;6.30;58.83;101176.47;5075591;28;19916;-80
2023/02/02 00:10:53;;;;;;;;;;;;;;;6.10;59.83;101171.13;5076589;28;20388;-80
2023/02/02 00:13:42;;;;;;;;;;;;;;;6.10;60.40;101161.16;5076017;28;20451;-79
2023/02/02 00:16:36;;;;;;;;;;;;;;;6.82;59.02;101163.28;5076395;28;19916;-79
2023/02/02 00:19:28;;;;;;;;;;;;;;;6.64;59.85;101169.34;5081132;28;19912;-79
2023/02/02 00:22:20;;;;;;;;;;;;;;;6.65;59.76;101170.97;5074116;28;20288;-79
2023/02/02 00:25:12;;;;;;;;;;;;;;;6.54;60.25;101171.28;5080692;28;19912;-79
2023/02/02 00:28:04;;;;;;;;;;;;;;;6.84;59.79;101166.53;5075838;28;19920;-79
2023/02/02 00:30:56;;;;;;;;;;;;;;;6.90;60.09;101166.50;5068635;28;20384;-78
2023/02/02 00:33:49;;;;;;;;;;;;;;;6.97;58.77;101159.69;5077630;28;19912;-79
2023/02/02 00:36:41;;;;;;;;;;;;;;;6.77;57.49;101162.50;5075437;28;19912;-79
2023/02/02 00:39:33;;;;;;;;;;;;;;;6.66;58.48;101160.94;5079267;28;19913;-79
2023/02/02 00:42:25;;;;;;;;;;;;;;;6.78;59.03;101164.94;5073525;28;20384;-79
2023/02/02 00:45:17;;;;;;;;;;;;;;;6.44;59.23;101167.53;5072506;28;19912;-79
2023/02/02 00:48:09;;;;;;;;;;;;;;;6.69;58.65;101177.41;5077952;28;19916;-78
2023/02/02 00:51:01;;;;;;;;;;;;;;;6.46;59.02;101159.13;5070500;28;20296;-78
2023/02/02 00:53:51;;;;;;;;;;;;;;;6.32;59.73;101160.81;5067194;28;19912;-78
2023/02/02 00:56:44;;;;;;;;;;;;;;;6.60;60.11;101170.97;5065805;28;19912;-79
2023/02/02 00:59:36;;;;;;;;;;;;;;;6.67;59.37;101179.56;5075203;28;20289;-79
2023/02/02 01:02:28;;;;;;;;;;;;;;;6.33;59.32;101179.44;5078866;28;20280;-79
2023/02/02 01:05:21;;;;;;;;;;;;;;;6.10;59.72;101180.03;5072196;28;19913;-78
2023/02/02 01:08:13;;;;;;;;;;;;;;;6.61;59.70;101191.50;5067579;28;19917;-78
2023/02/02 01:11:05;;;;;;;;;;;;;;;6.72;58.13;101184.97;5070109;28;19916;-79
2023/02/02 01:13:57;;;;;;;;;;;;;;;6.78;58.02;101200.06;5073100;28;19913;-79
2023/02/02 01:16:49;;;;;;;;;;;;;;;6.84;58.25;101188.16;5071773;28;19916;-78
2023/02/02 01:19:42;;;;;;;;;;;;;;;6.64;56.41;101196.34;5073232;28;19912;-79
2023/02/02 01:22:37;;;;;;;;;;;;;;;6.19;57.38;101191.13;5074435;28;19920;-78
2023/02/02 01:25:29;;;;;;;;;;;;;;;6.43;57.65;101192.91;5076697;28;19912;-78
2023/02/02 01:28:21;;;;;;;;;;;;;;;6.52;57.67;101203.16;5066969;28;20309;-80
2023/02/02 01:31:15;;;;;;;;;;;;;;;6.12;58.33;101195.97;5073772;28;19912;-78
2023/02/02 01:34:07;;;;;;;;;;;;;;;5.89;58.12;101200.88;5072813;28;19912;-79
2023/02/02 01:36:59;;;;;;;;;;;;;;;5.99;58.92;101198.16;5068092;28;19912;-79
2023/02/02 01:39:51;;;;;;;;;;;;;;;6.22;59.06;101194.06;5078698;28;19912;-78
2023/02/02 01:42:43;;;;;;;;;;;;;;;6.25;58.14;101192.69;5073781;28;19912;-78
2023/02/02 01:45:32;;;;;;;;;;;;;;;5.79;58.39;101202.75;5066443;28;19916;-79
2023/02/02 01:48:25;;;;;;;;;;;;;;;5.94;58.28;101198.16;5070603;28;19916;-79
2023/02/02 01:51:18;;;;;;;;;;;;;;;6.26;56.36;101197.03;5065435;28;19912;-80
2023/02/02 01:54:10;;;;;;;;;;;;;;;6.33;55.68;101186.75;5068529;28;20301;-79
2023/02/02 01:57:19;;;;;;;;;;;;;;;6.11;56.49;101178.97;5067123;28;19912;-80
2023/02/02 02:00:12;;;;;;;;;;;;;;;5.82;56.83;101177.91;5063061;28;19913;-80
2023/02/02 02:03:06;;;;;;;;;;;;;;;6.11;56.82;101188.97;5072055;28;19912;-79
2023/02/02 02:06:05;;;;;;;;;;;;;;;5.96;57.53;101198.72;5072781;28;19913;-79
2023/02/02 02:08:59;;;;;;;;;;;;;;;6.44;56.02;101189.16;5077456;28;19916;-79
2023/02/02 02:11:48;;;;;;;;;;;;;;;6.48;54.81;101193.97;5069495;28;19912;-80
2023/02/02 02:18:09;;;;;;;;;;;;;;;6.28;55.79;101205.66;5060079;28;19916;-79
2023/02/02 02:27:44;;;;;;;;;;;;;;;6.32;55.04;101209.44;5071314;28;19936;-78
2023/02/02 02:30:50;;;;;;;;;;;;;;;6.42;55.33;101198.59;5072135;28;19916;-79
2023/02/02 02:33:46;;;;;;;;;;;;;;;6.70;55.81;101203.34;5071765;28;20389;-79
2023/02/02 02:36:45;;;;;;;;;;;;;;;6.62;55.00;101195.81;5072626;28;19913;-79
2023/02/02 02:39:38;;;;;;;;;;;;;;;6.78;55.13;101204.66;5072026;28;19913;-79
2023/02/02 02:42:32;;;;;;;;;;;;;;;6.94;56.05;101208.09;5076166;28;19912;-79
2023/02/02 02:45:25;;;;;;;;;;;;;;;6.88;55.23;101207.31;5073777;28;19912;-79
2023/02/02 02:48:15;;;;;;;;;;;;;;;6.30;53.46;101208.88;5071584;28;20324;-79
2023/02/02 02:51:09;;;;;;;;;;;;;;;6.60;54.67;101208.00;5073602;28;20373;-79
2023/02/02 02:54:01;;;;;;;;;;;;;;;6.05;54.10;101217.84;5076189;28;20297;-80
2023/02/02 02:56:57;;;;;;;;;;;;;;;5.86;56.64;101217.59;5076259;28;19923;-79
2023/02/02 03:00:11;;;;;;;;;;;;;;;5.60;57.10;101214.09;5074169;28;20403;-80
2023/02/02 03:03:20;;;;;;;;;;;;;;;5.61;57.39;101220.28;5077744;28;19916;-80
2023/02/02 03:06:14;;;;;;;;;;;;;;;5.51;57.81;101214.88;5074574;28;19912;-80
2023/02/02 03:09:07;;;;;;;;;;;;;;;6.08;56.35;101203.81;5072669;28;19920;-79
2023/02/02 03:11:59;;;;;;;;;;;;;;;5.66;57.68;101214.09;5070777;28;20376;-80
2023/02/02 03:14:51;;;;;;;;;;;;;;;5.90;56.48;101217.88;5067360;28;20380;-80
2023/02/02 03:17:42;;;;;;;;;;;;;;;6.10;56.19;101227.81;5069901;28;19912;-79
2023/02/02 03:20:35;;;;;;;;;;;;;;;6.05;55.91;101231.34;5077258;28;19912;-79
2023/02/02 03:23:26;;;;;;;;;;;;;;;6.49;55.71;101228.84;5082013;28;19912;-79
2023/02/02 03:26:18;;;;;;;;;;;;;;;5.75;56.08;101224.06;5098194;28;19911;-79
2023/02/02 03:29:10;;;;;;;;;;;;;;;6.18;56.94;101222.69;5098560;28;19916;-80
2023/02/02 03:32:02;;;;;;;;;;;;;;;6.27;56.72;101214.84;5091292;28;19917;-79
2023/02/02 03:34:54;;;;;;;;;;;;;;;5.96;57.20;101219.50;5071325;28;19912;-79
2023/02/02 03:37:46;;;;;;;;;;;;;;;5.71;59.80;101228.38;5077684;28;20292;-79
2023/02/02 03:40:35;;;;;;;;;;;;;;;5.62;59.45;101231.91;5081541;28;19916;-79
2023/02/02 03:43:50;;;;;;;;;;;;;;;5.88;59.40;101239.75;5071477;28;19913;-79
2023/02/02 03:46:40;;;;;;;;;;;;;;;5.84;58.57;101241.31;5069894;28;19912;-80
2023/02/02 03:49:32;;;;;;;;;;;;;;;5.82;58.56;101234.59;5079153;28;19924;-80
2023/02/02 03:52:23;;;;;;;;;;;;;;;5.77;59.01;101226.50;5076940;28;19912;-80
2023/02/02 03:55:15;;;;;;;;;;;;;;;5.97;59.77;101221.13;5079831;28;19916;-79
2023/02/02 03:58:07;;;;;;;;;;;;;;;5.51;59.03;101218.41;5074129;28;19912;-79
2023/02/02 04:01:17;;;;;;;;;;;;;;;5.88;59.21;101210.06;5071398;28;19913;-80
2023/02/02 04:04:09;;;;;;;;;;;;;;;5.51;59.17;101215.69;5069502;28;19912;-79
2023/02/02 04:07:01;;;;;;;;;;;;;;;5.44;60.38;101217.03;5070065;28;19924;-79
2023/02/02 04:09:50;;;;;;;;;;;;;;;5.70;59.67;101209.75;5071931;28;19979;-79
2023/02/02 04:12:39;;;;;;;;;;;;;;;5.59;59.33;101212.47;5057165;28;20316;-79
2023/02/02 04:15:29;;;;;;;;;;;;;;;5.81;57.71;101203.28;5070118;28;19912;-79
2023/02/02 04:18:18;;;;;;;;;;;;;;;6.01;58.04;101195.19;5076164;28;19912;-79
2023/02/02 04:21:09;;;;;;;;;;;;;;;5.83;59.36;101201.13;5077354;28;19912;-79
2023/02/02 04:24:01;;;;;;;;;;;;;;;6.05;58.72;101206.25;5075230;28;19912;-79
2023/02/02 04:26:52;;;;;;;;;;;;;;;5.66;58.95;101204.09;5075265;28;19912;-79
2023/02/02 04:29:44;;;;;;;;;;;;;;;5.83;58.58;101191.16;5076735;28;19912;-80
2023/02/02 04:32:36;;;;;;;;;;;;;;;5.22;59.41;101194.91;5066421;28;19916;-80
2023/02/02 04:35:28;;;;;;;;;;;;;;;5.04;61.45;101196.22;5070993;28;20383;-79
2023/02/02 04:38:18;;;;;;;;;;;;;;;4.97;60.76;101201.06;5067643;28;19912;-79
2023/02/02 04:41:13;;;;;;;;;;;;;;;5.08;59.99;101205.38;5074793;28;19928;-79
2023/02/02 04:44:05;;;;;;;;;;;;;;;5.05;59.81;101204.03;5056682;28;19912;-80
2023/02/02 04:46:57;;;;;;;;;;;;;;;5.32;60.58;101203.84;5068768;28;19912;-80
2023/02/02 04:49:49;;;;;;;;;;;;;;;5.68;59.59;101193.88;5074300;28;19913;-78
2023/02/02 04:52:41;;;;;;;;;;;;;;;5.37;59.91;101206.53;5080199;28;19912;-79
2023/02/02 04:55:36;;;;;;;;;;;;;;;5.38;59.41;101208.16;5118717;23;19913;-75
2023/02/02 04:58:28;;;;;;;;;;;;;;;5.26;59.58;101212.16;5069501;28;19920;-75
2023/02/02 05:01:21;;;;;;;;;;;;;;;4.78;60.40;101203.41;5064065;28;20313;-75
2023/02/02 05:04:13;;;;;;;;;;;;;;;4.84;62.00;101215.03;5069522;28;19916;-74
2023/02/02 05:07:05;;;;;;;;;;;;;;;4.85;61.65;101200.50;5065623;28;20381;-75
2023/02/02 05:09:56;;;;;;;;;;;;;;;5.13;60.83;101210.78;5067922;28;19912;-76
2023/02/02 05:12:48;;;;;;;;;;;;;;;5.02;61.67;101218.06;5077783;28;19912;-76
2023/02/02 05:15:38;;;;;;;;;;;;;;;4.92;61.69;101207.25;5070045;28;19913;-76
2023/02/02 05:18:30;;;;;;;;;;;;;;;5.46;60.94;101209.50;5072929;28;19916;-76
2023/02/02 05:21:22;;;;;;;;;;;;;;;5.07;60.01;101209.19;5077329;28;19916;-76
2023/02/02 05:24:14;;;;;;;;;;;;;;;5.30;59.90;101218.63;5058871;28;19912;-76
2023/02/02 05:27:04;;;;;;;;;;;;;;;5.13;62.97;101216.19;5070804;28;19912;-76
2023/02/02 05:29:56;;;;;;;;;;;;;;;5.40;61.10;101210.56;5058356;28;20381;-75
2023/02/02 05:32:48;;;;;;;;;;;;;;;5.60;60.39;101227.56;5058550;28;19913;-75
2023/02/02 05:35:40;;;;;;;;;;;;;;;5.60;59.75;101205.19;5064942;28;19913;-75
2023/02/02 05:38:32;;;;;;;;;;;;;;;5.40;61.65;101202.47;5065897;28;19920;-76
2023/02/02 05:41:25;;;;;;;;;;;;;;;5.62;61.02;101213.81;5076934;28;20369;-75
2023/02/02 05:44:17;;;;;;;;;;;;;;;5.54;60.53;101225.13;5071968;28;19912;-76
2023/02/02 05:47:09;;;;;;;;;;;;;;;5.45;59.93;101224.88;5064294;28;20297;-75
2023/02/02 05:50:01;;;;;;;;;;;;;;;5.55;60.11;101219.47;5070288;28;20288;-75
2023/02/02 05:52:53;;;;;;;;;;;;;;;5.63;59.38;101228.13;5071562;28;19916;-76
2023/02/02 05:55:45;;;;;;;;;;;;;;;5.39;59.72;101238.59;5076647;28;19917;-75
2023/02/02 05:58:37;;;;;;;;;;;;;;;5.08;60.42;101230.47;5071466;28;19913;-75
2023/02/02 06:01:29;;;;;;;;;;;;;;;5.66;59.53;101231.09;5068956;28;20382;-75
2023/02/02 06:04:21;;;;;;;;;;;;;;;5.94;59.15;101230.53;5079196;28;20385;-76
2023/02/02 06:07:13;;;;;;;;;;;;;;;5.15;60.51;101247.19;5073668;28;19916;-76
2023/02/02 06:10:03;;;;;;;;;;;;;;;5.34;59.97;101215.13;5074230;28;20304;-76
2023/02/02 06:12:54;;;;;;;;;;;;;;;4.92;62.33;101204.56;5078361;28;19912;-76
2023/02/02 06:15:46;;;;;;;;;;;;;;;4.24;63.04;101213.69;5074993;28;20298;-77
2023/02/02 06:18:39;;;;;;;;;;;;;;;4.59;64.58;101210.38;5072907;28;19912;-76
2023/02/02 06:21:34;;;;;;;;;;;;;;;4.15;63.57;101215.25;5074215;28;20304;-78
2023/02/02 06:24:26;;;;;;;;;;;;;;;4.46;63.55;101208.16;5075283;28;19912;-76
2023/02/02 06:27:18;;;;;;;;;;;;;;;4.62;64.00;101215.25;5072861;28;20384;-76
2023/02/02 06:30:10;;;;;;;;;;;;;;;4.52;64.96;101215.19;5075856;28;19912;-76
2023/02/02 06:33:01;;;;;;;;;;;;;;;4.50;63.23;101201.16;5072913;28;19913;-76
2023/02/02 06:35:53;;;;;;;;;;;;;;;4.65;63.99;101233.56;5076801;28;19912;-77
2023/02/02 06:38:45;;;;;;;;;;;;;;;4.57;64.17;101210.63;5075079;28;19916;-76
2023/02/02 06:41:37;;;;;;;;;;;;;;;4.31;66.09;101206.22;5065710;28;19913;-75
2023/02/02 06:44:29;;;;;;;;;;;;;;;4.81;64.90;101211.00;5075103;28;19912;-75
2023/02/02 06:47:21;;;;;;;;;;;;;;;5.10;63.85;101227.50;5072131;28;20378;-75
2023/02/02 06:50:12;;;;;;;;;;;;;;;5.13;61.49;101226.97;5071546;28;19916;-75
2023/02/02 06:53:02;;;;;;;;;;;;;;;5.42;61.39;101246.19;5075279;28;19913;-75
2023/02/02 06:55:59;;;;;;;;;;;;;;;5.31;61.67;101236.44;5064521;28;19912;-75
2023/02/02 06:58:49;;;;;;;;;;;;;;;5.43;61.45;101234.31;5071933;28;20292;-76
2023/02/02 07:01:41;;;;;;;;;;;;;;;5.12;64.82;101236.16;5066740;28;20381;-76
2023/02/02 07:04:32;;;;;;;;;;;;;;;5.19;64.48;101242.06;5070173;28;19920;-75
2023/02/02 07:07:22;;;;;;;;;;;;;;;4.78;68.62;101241.13;5066703;28;19912;-75
2023/02/02 07:10:14;;;;;;;;;;;;;;;4.48;71.58;101224.84;5067962;28;20292;-75
2023/02/02 07:13:03;;;;;;;;;;;;;;;4.68;71.10;101228.44;5065882;28;20385;-76
2023/02/02 07:15:55;;;;;;;;;;;;;;;4.61;69.72;101240.53;5069143;28;19912;-75
2023/02/02 07:18:47;;;;;;;;;;;;;;;4.30;71.18;101240.38;5071350;28;19912;-76
2023/02/02 07:21:39;;;;;;;;;;;;;;;4.34;71.93;101240.66;5074627;28;19912;-76
2023/02/02 07:24:31;;;;;;;;;;;;;;;4.21;73.06;101268.06;5073094;28;20142;-76
2023/02/02 07:27:23;;;;;;;;;;;;;;;4.22;73.78;101248.13;5074386;28;19913;-76
2023/02/02 07:30:16;;;;;;;;;;;;;;;4.32;74.67;101256.25;5079820;28;19912;-75
2023/02/02 07:33:08;;;;;;;;;;;;;;;4.14;76.30;101249.44;5077311;28;19912;-75
2023/02/02 07:36:00;;;;;;;;;;;;;;;4.30;74.86;101245.78;5075073;28;19916;-76
2023/02/02 07:38:52;;;;;;;;;;;;;;;4.49;73.98;101266.88;5078721;28;20285;-75
2023/02/02 07:41:42;;;;;;;;;;;;;;;4.37;72.82;101252.81;5065808;28;19916;-74
2023/02/02 07:44:38;;;;;;;;;;;;;;;4.48;72.68;101246.38;5065519;28;19920;-75
2023/02/02 07:47:30;;;;;;;;;;;;;;;4.75;73.17;101268.63;5062740;28;19913;-75
2023/02/02 07:50:22;;;;;;;;;;;;;;;4.56;72.33;101270.16;5062256;28;19913;-76
2023/02/02 07:53:14;;;;;;;;;;;;;;;4.71;71.36;101272.91;5074374;28;19913;-76
2023/02/02 07:56:15;;;;;;;;;;;;;;;4.97;70.89;101287.31;5076599;28;19912;-75
2023/02/02 07:59:07;;;;;;;;;;;;;;;4.73;70.13;101292.31;5075578;28;19912;-76
2023/02/02 08:01:56;;;;;;;;;;;;;;;4.22;73.63;101286.63;5077786;28;20289;-76
2023/02/02 08:04:46;;;;;;;;;;;;;;;4.37;72.82;101287.81;5072375;28;19912;-74
2023/02/02 08:07:38;;;;;;;;;;;;;;;4.77;71.74;101282.66;5058875;28;19913;-75
2023/02/02 08:10:30;;;;;;;;;;;;;;;3.55;75.43;101280.97;5068738;28;19913;-75
2023/02/02 08:13:22;;;;;;;;;;;;;;;3.13;78.25;101278.13;5074414;28;19912;-75
2023/02/02 08:16:14;;;;;;;;;;;;;;;3.79;78.23;101289.53;5078257;28;19913;-75
2023/02/02 08:19:06;;;;;;;;;;;;;;;3.61;78.20;101284.50;5076135;28;19913;-75
2023/02/02 08:21:57;;;;;;;;;;;;;;;3.44;79.22;101285.44;5079566;28;19913;-74
2023/02/02 08:24:49;;;;;;;;;;;;;;;3.56;79.76;101292.50;5077824;28;19912;-75
2023/02/02 08:27:41;;;;;;;;;;;;;;;3.75;79.01;101294.59;5069701;28;19912;-75
2023/02/02 08:30:33;;;;;;;;;;;;;;;4.20;77.95;101279.88;5078559;28;19912;-74
2023/02/02 08:33:25;;;;;;;;;;;;;;;4.60;76.32;101282.81;5076404;28;19913;-75
2023/02/02 08:36:17;;;;;;;;;;;;;;;4.37;76.75;101282.44;5074277;28;19912;-75
2023/02/02 08:39:09;;;;;;;;;;;;;;;4.28;77.33;101285.59;5075691;28;20354;-76
2023/02/02 08:42:01;;;;;;;;;;;;;;;4.45;78.49;101271.97;5065480;28;19913;-77
2023/02/02 08:44:51;;;;;;;;;;;;;;;5.16;76.17;101293.84;5067340;28;19912;-76
2023/02/02 08:47:40;;;;;;;;;;;;;;;4.58;76.92;101273.38;5056545;28;19912;-77
2023/02/02 08:50:32;;;;;;;;;;;;;;;4.88;77.37;101265.44;5064960;28;19920;-76
2023/02/02 08:53:22;;;;;;;;;;;;;;;5.91;75.45;101277.00;5068314;28;20377;-79
2023/02/02 08:56:12;;;;;;;;;;;;;;;6.28;73.21;101316.38;5070268;28;19912;-76
2023/02/02 08:59:04;;;;;;;;;;;;;;;7.49;70.46;101286.19;5080479;28;19912;-78
2023/02/02 09:01:56;;;;;;;;;;;;;;;8.52;66.37;101264.22;5060033;28;20308;-78
2023/02/02 09:04:45;;;;;;;;;;;;;;;8.11;65.53;101298.19;5079994;28;19916;-78
2023/02/02 09:07:37;;;;;;;;;;;;;;;7.31;67.70;101303.09;5065020;28;19912;-77
2023/02/02 09:10:30;;;;;;;;;;;;;;;7.18;67.39;101288.28;5063826;28;19912;-77
2023/02/02 09:13:23;;;;;;;;;;;;;;;6.87;68.77;101276.78;5059716;28;19916;-77
2023/02/02 09:16:15;;;;;;;;;;;;;;;7.08;67.38;101279.41;5070301;28;19920;-77
2023/02/02 09:19:07;;;;;;;;;;;;;;;7.27;66.46;101293.91;5066866;28;20384;-77
2023/02/02 09:21:59;;;;;;;;;;;;;;;7.10;66.14;101299.69;5063178;28;19913;-77
2023/02/02 09:24:51;;;;;;;;;;;;;;;7.18;66.17;101300.97;5071256;28;19912;-77
2023/02/02 09:27:43;;;;;;;;;;;;;;;7.23;65.30;101298.25;5075274;28;19916;-76
2023/02/02 09:30:35;;;;;;;;;;;;;;;7.30;64.65;101293.34;5069218;28;19916;-76
2023/02/02 09:33:27;;;;;;;;;;;;;;;7.43;63.62;101303.56;5076254;28;20380;-77
2023/02/02 09:36:19;;;;;;;;;;;;;;;7.44;63.64;101299.75;5074584;28;19918;-76
2023/02/02 09:39:11;;;;;;;;;;;;;;;7.47;62.27;101304.59;5078263;28;19912;-77
2023/02/02 09:42:07;;;;;;;;;;;;;;;7.67;62.51;101326.13;5071355;28;19916;-80
2023/02/02 09:45:07;;;;;;;;;;;;;;;7.67;61.39;101320.72;5073256;28;19913;-77
2023/02/02 09:47:58;;;;;;;;;;;;;;;7.74;60.89;101315.81;5077141;28;19920;-77
2023/02/02 09:50:54;;;;;;;;;;;;;;;7.79;59.17;101322.25;5074935;28;19912;-78
2023/02/02 09:53:45;;;;;;;;;;;;;;;7.82;59.22;101322.53;5071367;28;19912;-76
2023/02/02 09:56:40;;;;;;;;;;;;;;;7.84;58.22;101327.66;5075125;28;19912;-77
2023/02/02 09:59:37;;;;;;;;;;;;;;;7.95;57.21;101343.53;5073255;28;19920;-76
2023/02/02 10:02:48;;;;;;;;;;;;;;;8.10;55.72;101321.75;5075706;28;19913;-78
2023/02/02 10:05:45;;;;;;;;;;;;;;;8.18;56.11;101331.16;5069792;28;20296;-77
2023/02/02 10:08:43;;;;;;;;;;;;;;;8.25;55.75;101320.81;5067990;28;19916;-77
2023/02/02 10:11:49;;;;;;;;;;;;;;;8.29;56.64;101324.56;5058739;28;19935;-76
2023/02/02 10:14:49;;;;;;;;;;;;;;;8.45;56.62;101315.25;5065189;28;19912;-77
2023/02/02 10:17:38;;;;;;;;;;;;;;;8.55;55.70;101320.56;5071742;28;19913;-77
2023/02/02 10:20:29;;;;;;;;;;;;;;;8.60;55.31;101314.28;5064867;28;19916;-77
2023/02/02 10:23:29;;;;;;;;;;;;;;;8.69;55.18;101298.16;5058642;28;19913;-77
2023/02/02 10:26:34;;;;;;;;;;;;;;;8.80;53.89;101291.53;5061582;28;19920;-77
2023/02/02 10:29:26;;;;;;;;;;;;;;;8.94;53.71;101306.00;5058284;28;19917;-77
2023/02/02 10:32:15;;;;;;;;;;;;;;;8.91;52.63;101301.19;5056665;28;20308;-77
2023/02/02 10:35:11;;;;;;;;;;;;;;;9.11;53.30;101270.28;5065645;28;19913;-77
2023/02/02 10:38:18;;;;;;;;;;;;;;;9.29;51.40;101264.88;5069676;28;19931;-77
2023/02/02 10:41:24;;;;;;;;;;;;;;;9.41;52.74;101303.25;5068040;28;19916;-77
2023/02/02 10:44:32;;;;;;;;;;;;;;;9.48;51.53;101288.50;5070854;28;19912;-77
2023/02/02 10:47:28;;;;;;;;;;;;;;;9.65;50.20;101248.06;5065646;28;19916;-77
2023/02/02 10:50:21;;;;;;;;;;;;;;;9.87;49.83;101280.81;5078275;28;19916;-77
2023/02/02 10:53:12;;;;;;;;;;;;;;;9.83;48.94;101290.69;5076319;28;19935;-76
2023/02/02 10:56:04;;;;;;;;;;;;;;;9.80;49.11;101264.13;5073567;28;19917;-77
2023/02/02 10:59:12;;;;;;;;;;;;;;;9.87;49.33;101269.97;5071062;28;19912;-77
2023/02/02 11:02:04;;;;;;;;;;;;;;;10.10;48.70;101289.97;5069218;28;19913;-78
2023/02/02 11:08:36;;;;;;;;;;;;;;;10.20;47.52;101274.34;5032466;28;19917;-77
2023/02/02 11:11:31;;;;;;;;;;;;;;;10.24;47.29;101271.81;5072561;28;19913;-81
2023/02/02 11:14:35;;;;;;;;;;;;;;;10.52;46.90;101259.03;5074249;28;19917;-79
2023/02/02 11:17:25;;;;;;;;;;;;;;;10.70;55.04;101244.56;5071494;28;19917;-80
2023/02/02 11:20:35;;;;;;;;;;;;;;;10.75;47.79;101235.50;5065942;28;19913;-80
2023/02/02 11:23:28;;;;;;;;;;;;;;;10.75;43.70;101247.19;5071729;28;20309;-80
2023/02/02 11:26:20;;;;;;;;;;;;;;;10.85;51.07;101238.81;5077949;28;19920;-80
2023/02/02 11:29:39;;;;;;;;;;;;;;;10.92;48.63;101233.75;5065390;28;19921;-81
2023/02/02 11:32:37;;;;;;;;;;;;;;;10.99;49.28;101238.78;5072362;28;19913;-80
2023/02/02 11:35:32;;;;;;;;;;;;;;;11.03;46.26;101224.25;5077899;28;19912;-79
2023/02/02 11:38:24;;;;;;;;;;;;;;;11.13;42.76;101234.91;5080141;28;19916;-79
2023/02/02 11:41:16;;;;;;;;;;;;;;;11.23;42.58;101222.19;5074715;28;19916;-79
2023/02/02 11:44:14;;;;;;;;;;;;;;;11.36;42.04;101221.34;5080060;28;19913;-79
2023/02/02 11:47:07;;;;;;;;;;;;;;;11.49;39.31;101204.16;5075109;28;19912;-79
2023/02/02 11:50:00;;;;;;;;;;;;;;;11.61;37.11;101209.03;5078883;28;19916;-79
2023/02/02 11:52:47;;;;;;;;;;;;;;;11.70;38.43;101208.00;5082018;28;19912;-80
2023/02/02 11:55:38;;;;;;;;;;;;;;;11.81;38.77;101195.75;5083249;28;19912;-78
2023/02/02 11:58:31;;;;;;;;;;;;;;;11.87;38.70;101197.25;5078337;28;19916;-79
2023/02/02 12:01:32;;;;;;;;;;;;;;;11.83;39.40;101201.72;5081281;28;20381;-79
2023/02/02 12:04:27;;;;;;;;;;;;;;;11.94;40.51;101194.84;5074311;28;19913;-79
2023/02/02 12:07:25;;;;;;;;;;;;;;;12.05;40.52;101181.78;5077174;28;19913;-79
2023/02/02 12:10:17;;;;;;;;;;;;;;;12.07;40.12;101189.66;5081966;28;19916;-79
2023/02/02 12:13:10;;;;;;;;;;;;;;;12.05;40.65;101170.88;5080175;28;19916;-79
2023/02/02 12:16:20;;;;;;;;;;;;;;;12.13;40.33;101167.41;5074756;28;19912;-81
2023/02/02 12:19:49;;;;;;;;;;;;;;;12.18;39.58;101163.72;5081275;28;19916;-80
2023/02/02 12:22:53;;;;;;;;;;;;;;;12.32;38.68;101164.41;5037044;28;19916;-80
2023/02/02 12:25:57;;;;;;;;;;;;;;;12.36;38.66;101151.75;5044907;28;19921;-81
2023/02/02 12:28:57;;;;;;;;;;;;;;;12.33;39.02;101145.00;5069275;28;19921;-80
2023/02/02 12:31:56;;;;;;;;;;;;;;;12.42;36.35;101134.13;5067010;28;20329;-81
2023/02/02 12:34:53;;;;;;;;;;;;;;;12.49;36.51;101139.94;5069883;28;19913;-81
2023/02/02 12:37:49;;;;;;;;;;;;;;;12.48;37.17;101141.03;5061696;28;19913;-80
2023/02/02 12:40:45;;;;;;;;;;;;;;;12.58;35.67;101148.94;5075026;28;19916;-82
2023/02/02 12:43:38;;;;;;;;;;;;;;;12.63;35.56;101156.97;5066671;28;19916;-81
2023/02/02 12:46:39;;;;;;;;;;;;;;;12.79;36.18;101151.84;5069462;28;19913;-81
2023/02/02 12:49:36;;;;;;;;;;;;;;;12.89;36.21;101148.81;5074746;28;19916;-79
2023/02/02 12:52:26;;;;;;;;;;;;;;;12.99;36.11;101144.97;5076445;28;19913;-81
2023/02/02 12:55:23;;;;;;;;;;;;;;;13.10;36.18;101141.59;5071475;28;19912;-81
2023/02/02 12:58:15;;;;;;;;;;;;;;;13.26;35.80;101133.72;5076703;28;19912;-83
2023/02/02 13:01:02;;;;;;;;;;;;;;;13.27;36.74;101136.13;5085921;28;19916;-81
2023/02/02 13:04:01;;;;;;;;;;;;;;;13.27;36.71;101124.41;5071875;28;19912;-81
2023/02/02 13:07:07;;;;;;;;;;;;;;;13.48;37.94;101130.81;5062714;28;20377;-81
2023/02/02 13:10:03;;;;;;;;;;;;;;;13.56;37.52;101140.91;5068995;28;19917;-81
2023/02/02 13:13:09;;;;;;;;;;;;;;;14.31;36.89;101141.31;5077174;28;19912;-83
2023/02/02 13:16:00;;;;;;;;;;;;;;;15.85;34.29;101138.50;5080097;28;20384;-82
2023/02/02 13:18:55;;;;;;;;;;;;;;;16.80;32.75;101143.53;5079449;28;19912;-80
2023/02/02 13:21:46;;;;;;;;;;;;;;;17.79;31.32;101160.13;5074148;28;19917;-82
2023/02/02 13:24:36;;;;;;;;;;;;;;;18.68;29.95;101152.94;5078441;28;19917;-83
2023/02/02 13:27:30;;;;;;;;;;;;;;;19.27;29.37;101159.31;5065838;28;19912;-83
2023/02/02 13:30:32;;;;;;;;;;;;;;;19.75;28.57;101149.63;5071673;28;19920;-83
2023/02/02 13:33:26;;;;;;;;;;;;;;;19.74;30.05;101150.78;5082782;28;19920;-82
2023/02/02 13:36:24;;;;;;;;;;;;;;;19.62;31.23;101149.78;5084467;28;19912;-83
2023/02/02 13:39:17;;;;;;;;;;;;;;;17.94;34.38;101146.38;5085643;28;20289;-83
2023/02/02 13:42:15;;;;;;;;;;;;;;;18.30;34.83;101144.50;5087640;28;19912;-83
2023/02/02 13:45:17;;;;;;;;;;;;;;;17.98;35.33;101143.72;5087458;28;19912;-84
2023/02/02 13:48:25;;;;;;;;;;;;;;;17.74;35.67;101141.13;5079643;28;19912;-83
2023/02/02 13:51:35;;;;;;;;;;;;;;;17.27;37.07;101139.03;5082963;28;20408;-86
2023/02/02 13:54:43;;;;;;;;;;;;;;;17.16;37.04;101129.72;5083188;28;19916;-83
2023/02/02 13:57:51;;;;;;;;;;;;;;;17.05;38.17;101121.16;5079159;28;19913;-83
2023/02/02 14:00:53;;;;;;;;;;;;;;;16.86;37.82;101121.00;5087692;28;20448;-82
2023/02/02 14:03:53;;;;;;;;;;;;;;;16.79;38.87;101123.53;5085584;28;20311;-82
2023/02/02 14:06:57;;;;;;;;;;;;;;;16.51;38.93;101119.84;5083051;28;19917;-83
2023/02/02 14:09:47;;;;;;;;;;;;;;;17.02;37.69;101124.59;5086453;28;19920;-83
2023/02/02 14:12:36;;;;;;;;;;;;;;;16.68;38.69;101127.88;5086981;28;19912;-83
2023/02/02 14:15:44;;;;;;;;;;;;;;;16.86;38.16;101136.69;5082873;28;19912;-85
2023/02/02 14:18:57;;;;;;;;;;;;;;;16.91;37.66;101139.97;5082859;28;19917;-83
2023/02/02 14:21:53;;;;;;;;;;;;;;;16.85;38.07;101141.38;5070428;28;19912;-83
2023/02/02 14:24:47;;;;;;;;;;;;;;;16.32;38.80;101147.09;5080599;28;20385;-82
2023/02/02 14:27:54;;;;;;;;;;;;;;;16.64;38.73;101137.97;5061851;28;19912;-83
2023/02/02 14:31:03;;;;;;;;;;;;;;;16.80;38.79;101149.84;5081710;28;19916;-84
2023/02/02 14:33:53;;;;;;;;;;;;;;;17.09;38.69;101143.25;5072808;28;19912;-83
2023/02/02 14:36:52;;;;;;;;;;;;;;;16.84;39.32;101142.50;5083377;28;19916;-83
2023/02/02 14:39:51;;;;;;;;;;;;;;;16.88;39.67;101142.59;5087240;28;19916;-83
2023/02/02 14:46:15;;;;;;;;;;;;;;;17.81;35.62;101139.38;5080029;28;19917;-83
2023/02/02 14:49:05;;;;;;;;;;;;;;;18.06;33.04;101137.25;5070584;28;19920;-84
2023/02/02 14:51:58;;;;;;;;;;;;;;;17.95;32.97;101141.69;5079226;28;19913;-83
2023/02/02 14:54:47;;;;;;;;;;;;;;;17.95;33.01;101147.19;5081708;28;19938;-83
2023/02/02 14:57:39;;;;;;;;;;;;;;;17.93;31.97;101139.28;5079363;28;20284;-83
2023/02/02 15:00:32;;;;;;;;;;;;;;;17.88;31.12;101141.50;5086883;28;19908;-83
2023/02/02 15:03:54;;;;;;;;;;;;;;;17.95;30.93;101144.44;5080030;28;19912;-82
2023/02/02 15:06:41;;;;;;;;;;;;;;;17.97;31.23;101144.09;5065476;28;19912;-81
2023/02/02 15:09:40;;;;;;;;;;;;;;;17.82;31.17;101143.72;5082932;28;19916;-81
2023/02/02 15:12:32;;;;;;;;;;;;;;;17.79;31.39;101147.16;5073992;28;19912;-80
2023/02/02 15:15:26;;;;;;;;;;;;;;;17.85;31.70;101151.28;5075606;28;19912;-81
2023/02/02 15:18:17;;;;;;;;;;;;;;;17.73;31.66;101148.56;5079778;28;19916;-81
2023/02/02 15:21:10;;;;;;;;;;;;;;;17.68;31.85;101151.59;5084846;28;19920;-81